This is the latest recevied weather packets stored in our database for station/object JM1YTT-13. If no packets are shown the sender has not sent any weather packets the latest 10 day(s).
| Time | Temp. | Humidity | Pressure | Rain* | Wind** | Luminosity | Snow |
|---|---|---|---|---|---|---|---|
| 1788084763 | 22.78° C | 93% | 1007.7 hPa | 0 mm | - | - | - |
| 1788082963 | 22.78° C | 93% | 1007.5 hPa | 0 mm | - | - | - |
| 1788081163 | 23.33° C | 92% | 1007.4 hPa | 0 mm | - | - | - |
| 1788079363 | 23.33° C | 91% | 1007.1 hPa | 0 mm | - | - | - |
| 1788077563 | 23.89° C | 90% | 1007 hPa | 0 mm | - | - | - |
| 1788075763 | 24.44° C | 89% | 1006.8 hPa | 0 mm | - | - | - |
| 1788073963 | 24.44° C | 89% | 1006.6 hPa | 0 mm | - | - | - |
| 1788072163 | 23.89° C | 90% | 1006.6 hPa | 0 mm | - | - | - |
| 1788070363 | 23.89° C | 90% | 1006.7 hPa | 0 mm | - | - | - |
| 1788068563 | 23.89° C | 89% | 1007.2 hPa | 0 mm | - | - | - |
| 1788066763 | 24.44° C | 91% | 1006.4 hPa | 0 mm | - | - | - |
| 1788064963 | 23.89° C | 90% | 1007 hPa | 0 mm | - | - | - |
| 1788063163 | 23.33° C | 92% | 1007.4 hPa | 0 mm | - | - | - |
| 1788028964 | 18.89° C | 100% | 1007.6 hPa | 0 mm | - | - | - |
| 1788027163 | 18.89° C | 100% | 1007.6 hPa | 0 mm | - | - | - |
| 1788019963 | 19.44° C | 97% | 1008 hPa | 0 mm | - | - | - |
| 1788016363 | 19.44° C | 97% | 1008.3 hPa | 0 mm | - | - | - |
| 1788005563 | 19.44° C | 97% | 1008.6 hPa | 0 mm | - | - | - |
| 1788003764 | 19.44° C | 96% | 1008.7 hPa | 0 mm | - | - | - |
| 1788001963 | 19.44° C | 96% | 1008.5 hPa | 0 mm | - | - | - |
| 1788000163 | 19.44° C | 96% | 1008.3 hPa | 0 mm | - | - | - |
| 1787998363 | 20° C | 96% | 1007.9 hPa | 0 mm | - | - | - |
| 1787994764 | 20° C | 96% | 1007.6 hPa | 0 mm | - | - | - |
| 1787992964 | 20° C | 96% | 1007.7 hPa | 0 mm | - | - | - |
| 1787991163 | 20.56° C | 96% | 1007.8 hPa | 0 mm | - | - | - |
* Rain latest hour (hover to see other rain measurements)
** Current wind speed in m/s (hover to see current wind gust speed)